createdAt,value
2022-10-04T09:33:34.222Z,97.90
2022-10-04T09:44:15.560Z,88.70
2022-10-04T09:54:44.429Z,83.90
2022-10-04T10:05:08.799Z,82.50
2022-10-04T10:15:38.441Z,78.10
2022-10-04T10:26:07.501Z,69.90
2022-10-04T10:36:37.383Z,67.80
2022-10-04T10:47:01.597Z,65.90
2022-10-04T10:57:36.783Z,62.50
2022-10-04T11:08:17.862Z,63.70
2022-10-04T11:18:57.200Z,64.20
2022-10-04T11:29:22.579Z,62.30
2022-10-04T11:39:52.864Z,57.40
2022-10-04T11:50:24.458Z,52.90
2022-10-04T12:00:47.519Z,54.40
2022-10-04T12:11:28.382Z,56.70
2022-10-04T12:21:49.364Z,49.20
2022-10-04T12:32:08.230Z,47.50
2022-10-04T12:42:32.398Z,45.40
2022-10-04T12:53:06.455Z,47.70
2022-10-04T13:03:18.017Z,46.90
2022-10-04T13:13:48.938Z,45.40
2022-10-04T13:24:15.346Z,41.90
2022-10-04T13:34:44.497Z,35.40
2022-10-04T13:44:57.220Z,36.30
2022-10-04T13:55:55.319Z,36.90
2022-10-04T14:06:24.379Z,38.10
2022-10-04T14:16:44.861Z,31.80
2022-10-04T14:26:48.640Z,36.70
2022-10-04T14:37:49.498Z,32.20
2022-10-04T14:48:18.197Z,30.50
2022-10-04T14:58:31.784Z,30.40
2022-10-04T15:08:58.421Z,29.80
2022-10-04T15:19:07.257Z,30.40
2022-10-04T15:29:34.699Z,31.40
2022-10-04T15:40:02.756Z,32.60
2022-10-04T15:50:27.341Z,31.30
2022-10-04T16:00:35.422Z,32.70
2022-10-04T16:11:12.603Z,33.20
2022-10-04T16:21:44.180Z,36.10
2022-10-04T16:31:56.444Z,38.80
2022-10-04T16:42:11.954Z,42.30
2022-10-04T16:52:36.001Z,55.70
2022-10-04T17:02:51.526Z,60.10
2022-10-04T17:13:00.200Z,71.30
2022-10-04T17:23:12.015Z,81.30
2022-10-04T17:33:24.798Z,86.00
2022-10-04T17:44:08.795Z,89.40
2022-10-04T17:54:54.121Z,92.50
2022-10-04T18:05:12.256Z,95.80
2022-10-04T18:15:35.303Z,96.70
2022-10-04T18:25:53.016Z,99.30
2022-10-04T18:36:18.243Z,99.90
2022-10-04T18:46:23.556Z,99.90
2022-10-04T18:56:28.432Z,99.90
2022-10-04T19:06:42.258Z,99.90
2022-10-04T19:17:09.840Z,99.90
2022-10-04T19:27:52.582Z,99.90
2022-10-04T19:38:15.961Z,99.90
